Tuesday, June 19, 2018, 6:53 AM EDT
Back to Local

KPYM, Plymouth Municipal Airport

Location: Carver, MA, United States Lat: 41.9
Local Time: 6:53 AM EDT (10:53 GMT) Lon: -70.733
Time Zone: US/Eastern Elev: 147 ft

Show me the last for .
Show Decoded

2018-06-19 05:52 METAR KPYM 190952Z AUTO 27006KT 10SM SCT040 SCT110 22/20 A2966 RMK AO2 RAE0859
                 SLP043 P0000 T02170200 =
2018-06-19 04:52 METAR KPYM 190852Z AUTO 22005KT 10SM -RA BKN085 BKN110 21/19 A2965 RMK AO2
                 RAB11E30B49 SLP039 P0000 60002 T02060194 56007 =
2018-06-19 03:52 METAR KPYM 190752Z AUTO 22006KT 10SM BKN100 OVC120 21/19 A2965 RMK AO2 RAB20E36
                 SLP039 P0001 T02060194 =
2018-06-19 02:52 METAR KPYM 190652Z AUTO 21006KT 10SM OVC100 21/20 A2964 RMK AO2 RAB08E27 SLP036
                 P0001 T02060200 =
2018-06-19 01:52 METAR KPYM 190552Z AUTO 23008KT 10SM OVC110 20/19 A2967 RMK AO2 RAB35E51 SLP046
                 P0000 60015 T02000194 10233 20194 56027 =
2018-06-19 00:52 METAR KPYM 190452Z AUTO 21008KT 10SM FEW120 20/19 A2968 RMK AO2 SLP050 T02000189
                 402780172 =
2018-06-18 23:52 METAR KPYM 190352Z AUTO 21009KT 10SM BKN110 20/18 A2971 RMK AO2 RAE25 SLP059
                 P0000 T02000183 =
2018-06-18 22:52 METAR KPYM 190252Z AUTO 21010KT 10SM -RA FEW030 OVC100 20/18 A2975 RMK AO2
                 SLP073 P0014 60015 T02000183 58016 =
2018-06-18 22:38 METAR KPYM 190238Z AUTO 20012G20KT 10SM -RA SCT039 BKN100 OVC120 20/18 A2976 RMK
                 AO2 LTG DSNT S PRESFR P0014 T02000178 =
2018-06-18 22:30 METAR KPYM 190230Z AUTO 22012G17KT 2 1/2SM -RA BR SCT036 BKN080 BKN100 19/18
                 A2978 RMK AO2 LTG DSNT S AND SW P0014 T01940178 =
2018-06-18 21:52 METAR KPYM 190152Z AUTO 22011KT 10SM -RA FEW080 SCT110 22/16 A2978 RMK AO2 RAB38
                 SLP083 P0001 T02170161 =
2018-06-18 20:52 METAR KPYM 190052Z AUTO 22012KT 10SM FEW060 SCT090 BKN110 22/17 A2978 RMK AO2
                 RAB28E52 SLP083 P0000 T02170167 =
2018-06-18 19:52 METAR KPYM 182352Z AUTO 22014KT 10SM CLR 23/14 A2980 RMK AO2 LTG DSNT NE SLP089
                 T02330144 10272 20233 55008 =
2018-06-18 18:52 METAR KPYM 182252Z AUTO 22017G21KT 10SM CLR 24/15 A2980 RMK AO2 SLP089 T02440150
                 =
2018-06-18 17:52 METAR KPYM 182152Z AUTO 22017G25KT 10SM CLR 27/17 A2979 RMK AO2 PK WND
                 24031/2102 SLP089 T02670172 =
2018-06-18 16:52 METAR KPYM 182052Z AUTO 21015G24KT 10SM CLR 27/17 A2982 RMK AO2 PK WND
                 22028/2040 SLP097 T02720172 56025 =
2018-06-18 15:52 METAR KPYM 181952Z AUTO 22016G22KT 10SM CLR 27/17 A2984 RMK AO2 PK WND
                 21031/1910 SLP106 T02670167 =
2018-06-18 14:52 METAR KPYM 181852Z AUTO 21017G24KT 10SM CLR 26/17 A2987 RMK AO2 SLP113 T02610167
                 =
2018-06-18 13:52 METAR KPYM 181752Z AUTO 21015G25KT 10SM CLR 27/17 A2989 RMK AO2 PK WND
                 20026/1708 SLP122 T02670172 10278 20211 58019 =
2018-06-18 12:52 METAR KPYM 181652Z AUTO 21016G29KT 10SM CLR 27/18 A2992 RMK AO2 PK WND
                 21029/1647 SLP130 T02720178 =
2018-06-18 11:52 METAR KPYM 181552Z AUTO 23019G27KT 10SM CLR 27/17 A2993 RMK AO2 PK WND
                 21027/1546 SLP134 T02720167 =
2018-06-18 10:52 METAR KPYM 181452Z AUTO 21018G23KT 10SM CLR 27/17 A2995 RMK AO2 PK WND
                 22028/1424 SLP140 T02720167 58014 =
2018-06-18 09:52 METAR KPYM 181352Z AUTO 22015G23KT 10SM CLR 26/17 A2996 RMK AO2 SLP145 T02610167
                 =
2018-06-18 08:52 METAR KPYM 181252Z AUTO 21010G18KT 10SM CLR 24/17 A2998 RMK AO2 SLP152 T02390167
                 =
2018-06-18 07:52 METAR KPYM 181152Z AUTO 20006KT 10SM CLR 21/17 A2999 RMK AO2 SLP155 T02110172
                 10211 20172 58016 =

Support USWX by starting your Amazon purchase here.